Time;durP1;ratioP1;P1;durP2;ratioP2;P2;SDS_P1;SDS_P2;PMS_P1;PMS_P2;Temp;Humidity;BMP_temperature;BMP_pressure;BME280_temperature;BME280_humidity;BME280_pressure;Samples;Min_cycle;Max_cycle;Signal;HPM_P1;HPM_P2
2022/02/22 00:01:40;;;;;;;40.87;7.73;;;;;;;;;;5054012;28;20291;-83
2022/02/22 00:04:07;;;;;;;46.47;8.13;;;;;;;;;;5054864;28;20192;-83
2022/02/22 00:06:34;;;;;;;46.57;7.43;;;;;;;;;;5054459;28;20238;-83
2022/02/22 00:09:02;;;;;;;37.47;7.83;;;;;;;;;;5054910;28;20612;-83
2022/02/22 00:11:29;;;;;;;46.30;7.17;;;;;;;;;;5054761;28;20236;-83
2022/02/22 00:13:57;;;;;;;46.77;7.80;;;;;;;;;;5054086;28;20219;-83
2022/02/22 00:16:25;;;;;;;41.07;7.20;;;;;;;;;;5053489;28;20239;-84
2022/02/22 00:18:52;;;;;;;38.47;7.30;;;;;;;;;;5053724;28;20305;-83
2022/02/22 00:21:19;;;;;;;40.80;6.77;;;;;;;;;;5054165;28;20312;-83
2022/02/22 00:23:46;;;;;;;34.47;7.07;;;;;;;;;;5053878;28;20748;-83
2022/02/22 00:26:13;;;;;;;33.17;6.33;;;;;;;;;;5054139;28;20235;-82
2022/02/22 00:28:41;;;;;;;34.47;6.90;;;;;;;;;;5053967;28;20642;-82
2022/02/22 00:31:09;;;;;;;31.43;6.23;;;;;;;;;;5053395;28;20227;-83
2022/02/22 00:33:36;;;;;;;32.43;6.20;;;;;;;;;;5053851;28;20287;-83
2022/02/22 00:36:04;;;;;;;29.57;6.47;;;;;;;;;;5053835;28;20234;-82
2022/02/22 00:38:31;;;;;;;33.97;7.37;;;;;;;;;;5054172;28;20200;-82
2022/02/22 00:40:59;;;;;;;34.63;6.83;;;;;;;;;;5053009;28;20269;-82
2022/02/22 00:43:26;;;;;;;32.83;6.53;;;;;;;;;;5053224;28;20223;-83
2022/02/22 00:45:53;;;;;;;36.87;6.37;;;;;;;;;;5052900;28;20731;-83
2022/02/22 00:48:22;;;;;;;40.47;6.10;;;;;;;;;;5053031;28;20230;-83
2022/02/22 00:50:49;;;;;;;35.80;7.53;;;;;;;;;;5052960;28;20250;-83
2022/02/22 00:53:16;;;;;;;34.13;6.27;;;;;;;;;;5053122;28;20731;-83
2022/02/22 00:55:43;;;;;;;30.63;7.20;;;;;;;;;;5053701;28;20750;-83
2022/02/22 00:58:11;;;;;;;41.43;7.70;;;;;;;;;;5052903;28;20200;-83
2022/02/22 01:00:38;;;;;;;31.33;7.63;;;;;;;;;;5053468;28;20251;-83
2022/02/22 01:03:05;;;;;;;36.53;6.87;;;;;;;;;;5052990;28;20235;-82
2022/02/22 01:05:34;;;;;;;31.70;6.60;;;;;;;;;;5052545;28;20235;-82
2022/02/22 01:08:02;;;;;;;31.40;6.03;;;;;;;;;;5053153;28;20703;-82
2022/02/22 01:10:29;;;;;;;35.37;6.50;;;;;;;;;;5052933;28;20196;-82
2022/02/22 01:12:56;;;;;;;38.20;6.93;;;;;;;;;;5052682;28;20623;-82
2022/02/22 01:15:23;;;;;;;38.97;6.00;;;;;;;;;;5053039;28;20241;-83
2022/02/22 01:17:51;;;;;;;36.57;6.17;;;;;;;;;;5053194;28;20233;-83
2022/02/22 01:20:18;;;;;;;34.17;5.40;;;;;;;;;;5052914;28;20227;-83
2022/02/22 01:22:51;;;;;;;33.57;5.97;;;;;;;;;;5052476;28;20238;-82
2022/02/22 01:25:19;;;;;;;27.43;5.53;;;;;;;;;;5052843;28;20213;-83
2022/02/22 01:27:46;;;;;;;39.00;6.43;;;;;;;;;;5051757;28;20225;-83
2022/02/22 01:30:13;;;;;;;31.93;6.33;;;;;;;;;;5052142;28;20235;-83
2022/02/22 01:32:41;;;;;;;31.10;5.77;;;;;;;;;;5052414;28;20739;-82
2022/02/22 01:35:08;;;;;;;31.47;5.57;;;;;;;;;;5052498;28;20310;-82
2022/02/22 01:37:36;;;;;;;38.77;6.07;;;;;;;;;;5052438;28;20719;-83
2022/02/22 01:40:06;;;;;;;24.13;6.07;;;;;;;;;;5052171;28;20314;-83
2022/02/22 01:42:33;;;;;;;33.97;5.90;;;;;;;;;;5051423;28;20211;-83
2022/02/22 01:45:01;;;;;;;37.17;6.20;;;;;;;;;;5052156;28;20254;-83
2022/02/22 01:47:28;;;;;;;26.07;6.03;;;;;;;;;;5052613;28;20302;-83
2022/02/22 01:49:55;;;;;;;31.93;5.80;;;;;;;;;;5052701;28;20222;-83
2022/02/22 01:52:23;;;;;;;30.87;6.00;;;;;;;;;;5051313;28;20207;-83
2022/02/22 01:54:50;;;;;;;37.37;5.73;;;;;;;;;;5051818;28;20237;-83
2022/02/22 01:57:19;;;;;;;33.73;5.77;;;;;;;;;;5051713;28;20234;-83
2022/02/22 01:59:47;;;;;;;30.80;5.17;;;;;;;;;;5052466;28;20232;-83
2022/02/22 02:02:14;;;;;;;35.93;6.07;;;;;;;;;;5051905;28;20235;-83
2022/02/22 02:04:41;;;;;;;40.47;5.97;;;;;;;;;;5051936;28;20253;-83
2022/02/22 02:07:09;;;;;;;39.37;6.23;;;;;;;;;;5051878;28;20233;-83
2022/02/22 02:09:36;;;;;;;35.93;5.57;;;;;;;;;;5051042;28;20199;-83
2022/02/22 02:12:03;;;;;;;32.97;5.77;;;;;;;;;;5050247;28;20285;-83
2022/02/22 02:14:32;;;;;;;39.20;6.80;;;;;;;;;;5052271;28;20289;-83
2022/02/22 02:17:00;;;;;;;38.50;6.23;;;;;;;;;;5051981;28;20743;-83
2022/02/22 02:19:27;;;;;;;33.63;6.33;;;;;;;;;;5051958;28;20731;-83
2022/02/22 02:21:58;;;;;;;34.37;5.60;;;;;;;;;;5052337;28;20332;-82
2022/02/22 02:24:27;;;;;;;37.47;6.10;;;;;;;;;;5051479;28;20200;-83
2022/02/22 02:26:55;;;;;;;34.37;5.27;;;;;;;;;;5051884;28;20230;-83
2022/02/22 02:29:23;;;;;;;29.07;5.90;;;;;;;;;;5051490;28;20293;-82
2022/02/22 02:31:51;;;;;;;36.93;6.97;;;;;;;;;;5051246;28;20206;-84
2022/02/22 02:34:20;;;;;;;31.93;5.67;;;;;;;;;;5051586;28;20322;-82
2022/02/22 02:36:47;;;;;;;35.53;6.50;;;;;;;;;;5051170;28;20259;-83
2022/02/22 02:39:16;;;;;;;35.07;6.43;;;;;;;;;;5051458;28;20285;-83
2022/02/22 02:41:44;;;;;;;38.57;6.57;;;;;;;;;;5051896;28;20757;-82
2022/02/22 02:44:12;;;;;;;33.30;6.63;;;;;;;;;;5050727;28;20576;-82
2022/02/22 02:46:40;;;;;;;32.93;5.57;;;;;;;;;;5050565;28;20258;-83
2022/02/22 02:49:07;;;;;;;30.80;5.97;;;;;;;;;;5050617;28;20238;-83
2022/02/22 02:51:34;;;;;;;27.23;6.07;;;;;;;;;;5051631;28;20223;-83
2022/02/22 02:54:02;;;;;;;39.13;5.60;;;;;;;;;;5051441;28;20207;-82
2022/02/22 02:56:31;;;;;;;27.53;5.27;;;;;;;;;;5052006;28;20243;-82
2022/02/22 02:58:59;;;;;;;41.93;6.03;;;;;;;;;;5051137;28;20198;-82
2022/02/22 03:01:27;;;;;;;37.30;6.00;;;;;;;;;;5051015;28;20295;-83
2022/02/22 03:03:55;;;;;;;30.63;5.47;;;;;;;;;;5050421;28;20285;-83
2022/02/22 03:06:22;;;;;;;28.23;5.57;;;;;;;;;;5051085;28;20230;-83
2022/02/22 03:08:50;;;;;;;33.37;5.30;;;;;;;;;;5066417;28;20199;-82
2022/02/22 03:11:17;;;;;;;23.33;5.23;;;;;;;;;;5066403;28;20213;-83
2022/02/22 03:13:46;;;;;;;37.47;5.17;;;;;;;;;;5050608;28;20233;-83
2022/02/22 03:16:13;;;;;;;32.20;5.07;;;;;;;;;;5050914;28;20237;-82
2022/02/22 03:18:42;;;;;;;26.70;5.60;;;;;;;;;;5050159;28;20705;-82
2022/02/22 03:21:10;;;;;;;31.43;5.63;;;;;;;;;;5050859;28;20214;-83
2022/02/22 03:23:38;;;;;;;26.73;6.00;;;;;;;;;;5050131;28;20568;-83
2022/02/22 03:26:05;;;;;;;31.47;5.80;;;;;;;;;;5051457;28;20195;-83
2022/02/22 03:28:32;;;;;;;32.87;6.00;;;;;;;;;;5050434;28;20237;-83
2022/02/22 03:31:03;;;;;;;27.57;5.57;;;;;;;;;;5050697;28;20274;-83
2022/02/22 03:33:30;;;;;;;29.07;5.17;;;;;;;;;;5051188;28;20208;-82
2022/02/22 03:35:58;;;;;;;29.17;5.47;;;;;;;;;;5051593;28;20262;-83
2022/02/22 03:38:26;;;;;;;33.37;5.47;;;;;;;;;;5051424;28;20198;-82
2022/02/22 03:40:53;;;;;;;25.07;5.27;;;;;;;;;;5050869;28;20663;-83
2022/02/22 03:43:20;;;;;;;35.17;5.73;;;;;;;;;;5051148;28;20309;-82
2022/02/22 03:45:47;;;;;;;28.10;5.80;;;;;;;;;;5050853;28;20286;-83
2022/02/22 03:48:16;;;;;;;27.60;5.93;;;;;;;;;;5050754;28;20621;-83
2022/02/22 03:50:44;;;;;;;29.63;5.53;;;;;;;;;;5051164;28;20235;-83
2022/02/22 03:53:12;;;;;;;32.33;5.63;;;;;;;;;;5049695;28;20261;-83
2022/02/22 03:55:39;;;;;;;29.93;5.77;;;;;;;;;;5050960;28;20199;-83
2022/02/22 03:58:06;;;;;;;24.50;4.83;;;;;;;;;;5050408;28;20272;-82
2022/02/22 04:00:35;;;;;;;43.30;6.30;;;;;;;;;;5050979;28;20235;-83
2022/02/22 04:03:03;;;;;;;26.10;4.87;;;;;;;;;;5051008;28;20282;-82
2022/02/22 04:05:32;;;;;;;29.77;4.97;;;;;;;;;;5051457;28;20249;-83
2022/02/22 04:08:00;;;;;;;36.63;5.50;;;;;;;;;;5050481;28;20230;-83
2022/02/22 04:10:27;;;;;;;36.50;5.00;;;;;;;;;;5050699;28;20249;-83
2022/02/22 04:12:54;;;;;;;31.73;4.87;;;;;;;;;;5051186;28;20223;-83
2022/02/22 04:15:22;;;;;;;27.23;4.40;;;;;;;;;;5049573;28;20209;-82
2022/02/22 04:17:49;;;;;;;26.10;4.60;;;;;;;;;;5053506;28;20234;-83
2022/02/22 04:20:17;;;;;;;33.40;5.40;;;;;;;;;;5053369;28;20229;-82
2022/02/22 04:22:46;;;;;;;26.03;4.63;;;;;;;;;;5054706;28;20227;-82
2022/02/22 04:25:13;;;;;;;33.67;5.97;;;;;;;;;;5054629;28;20207;-83
2022/02/22 04:27:41;;;;;;;35.63;5.77;;;;;;;;;;5053926;28;20298;-83
2022/02/22 04:30:08;;;;;;;25.10;5.80;;;;;;;;;;5054046;28;20280;-82
2022/02/22 04:32:36;;;;;;;38.13;5.83;;;;;;;;;;5053478;28;20231;-82
2022/02/22 04:35:03;;;;;;;32.87;6.23;;;;;;;;;;5053621;28;20199;-82
2022/02/22 04:37:30;;;;;;;30.00;6.13;;;;;;;;;;5053833;28;20298;-82
2022/02/22 04:40:01;;;;;;;31.10;4.97;;;;;;;;;;5053798;28;20234;-82
2022/02/22 04:42:28;;;;;;;30.83;5.20;;;;;;;;;;5053606;28;20239;-83
2022/02/22 04:44:55;;;;;;;29.73;4.77;;;;;;;;;;5052277;28;20249;-83
2022/02/22 04:47:22;;;;;;;28.83;4.60;;;;;;;;;;5052823;28;20734;-82
2022/02/22 04:49:50;;;;;;;34.13;4.90;;;;;;;;;;5052461;28;20683;-82
2022/02/22 04:52:17;;;;;;;32.17;4.70;;;;;;;;;;5053546;28;20287;-82
2022/02/22 04:54:44;;;;;;;26.93;4.30;;;;;;;;;;5053657;28;20218;-83
2022/02/22 04:57:13;;;;;;;27.67;5.00;;;;;;;;;;5053730;28;20632;-82
2022/02/22 04:59:40;;;;;;;34.20;5.03;;;;;;;;;;5052196;28;20996;-82
2022/02/22 05:02:07;;;;;;;30.63;5.10;;;;;;;;;;5053106;28;20334;-82
2022/02/22 05:04:34;;;;;;;28.53;4.57;;;;;;;;;;5052451;28;20282;-82
2022/02/22 05:07:01;;;;;;;29.23;4.40;;;;;;;;;;5052954;28;20287;-82
2022/02/22 05:09:29;;;;;;;29.33;4.60;;;;;;;;;;5053172;28;20288;-82
2022/02/22 05:11:56;;;;;;;35.90;4.70;;;;;;;;;;5052937;28;20231;-82
2022/02/22 05:14:25;;;;;;;31.07;5.57;;;;;;;;;;5044727;28;20293;-83
2022/02/22 05:16:52;;;;;;;29.37;5.20;;;;;;;;;;5053491;28;20234;-83
2022/02/22 05:19:20;;;;;;;37.27;5.87;;;;;;;;;;5052261;28;20231;-82
2022/02/22 05:21:47;;;;;;;36.70;6.13;;;;;;;;;;5051990;28;20321;-82
2022/02/22 05:24:15;;;;;;;34.83;5.77;;;;;;;;;;5051922;28;20687;-82
2022/02/22 05:26:42;;;;;;;31.30;6.00;;;;;;;;;;5052743;28;20675;-82
2022/02/22 05:29:09;;;;;;;36.37;6.03;;;;;;;;;;5052366;28;20201;-82
2022/02/22 05:31:38;;;;;;;37.53;6.00;;;;;;;;;;5052138;28;20281;-82
2022/02/22 05:34:05;;;;;;;32.90;5.60;;;;;;;;;;5051783;28;20250;-82
2022/02/22 05:36:32;;;;;;;30.23;5.77;;;;;;;;;;5052542;28;20245;-83
2022/02/22 05:38:59;;;;;;;41.83;6.93;;;;;;;;;;5052271;28;20291;-83
2022/02/22 05:41:26;;;;;;;42.73;6.67;;;;;;;;;;5052316;28;20274;-83
2022/02/22 05:43:54;;;;;;;37.77;7.00;;;;;;;;;;5052145;28;20247;-83
2022/02/22 05:46:21;;;;;;;38.13;7.40;;;;;;;;;;5051295;28;20644;-83
2022/02/22 05:48:49;;;;;;;47.07;7.50;;;;;;;;;;5047431;28;20233;-82
2022/02/22 05:51:17;;;;;;;33.47;6.63;;;;;;;;;;5052590;28;20234;-83
2022/02/22 05:53:44;;;;;;;40.90;7.03;;;;;;;;;;5032822;28;20207;-82
2022/02/22 05:56:12;;;;;;;51.07;7.60;;;;;;;;;;5044193;28;20223;-82
2022/02/22 05:58:39;;;;;;;43.83;7.90;;;;;;;;;;5052845;28;20230;-82
2022/02/22 06:01:06;;;;;;;45.93;7.87;;;;;;;;;;5051154;28;20281;-83
2022/02/22 06:03:33;;;;;;;43.20;7.17;;;;;;;;;;5051192;28;20226;-84
2022/02/22 06:06:02;;;;;;;49.37;7.63;;;;;;;;;;5052501;28;20224;-82
2022/02/22 06:08:29;;;;;;;42.90;7.27;;;;;;;;;;5051883;28;20200;-83
2022/02/22 06:10:57;;;;;;;50.13;7.37;;;;;;;;;;5052162;28;20210;-82
2022/02/22 06:13:24;;;;;;;45.03;8.13;;;;;;;;;;5051625;28;20211;-83
2022/02/22 06:15:51;;;;;;;49.20;8.57;;;;;;;;;;5052131;28;20570;-81
2022/02/22 06:18:18;;;;;;;46.83;7.13;;;;;;;;;;5051872;28;20282;-82
2022/02/22 06:20:47;;;;;;;50.63;6.77;;;;;;;;;;5052143;28;20228;-81
2022/02/22 06:23:15;;;;;;;46.00;6.63;;;;;;;;;;5051756;28;20251;-83
2022/02/22 06:25:43;;;;;;;43.77;7.97;;;;;;;;;;5051517;28;20224;-83
2022/02/22 06:28:10;;;;;;;42.13;7.87;;;;;;;;;;5051790;28;20208;-81
2022/02/22 06:30:38;;;;;;;45.80;6.73;;;;;;;;;;5050543;28;20227;-82
2022/02/22 06:33:05;;;;;;;50.33;7.00;;;;;;;;;;5051398;28;20229;-86
2022/02/22 06:35:32;;;;;;;44.57;6.97;;;;;;;;;;5051892;28;20667;-82
2022/02/22 06:38:00;;;;;;;48.33;6.80;;;;;;;;;;5052058;28;20285;-85
2022/02/22 06:40:30;;;;;;;38.93;6.47;;;;;;;;;;5050723;28;20779;-83
2022/02/22 06:42:58;;;;;;;54.90;7.07;;;;;;;;;;5049602;28;20247;-84
2022/02/22 06:45:25;;;;;;;47.13;6.83;;;;;;;;;;5051256;28;20231;-87
2022/02/22 06:47:52;;;;;;;39.70;5.90;;;;;;;;;;5050500;28;20578;-85
2022/02/22 06:50:19;;;;;;;45.30;6.23;;;;;;;;;;5051770;28;20280;-85
2022/02/22 06:52:47;;;;;;;44.70;6.73;;;;;;;;;;5051275;28;20196;-85
2022/02/22 06:55:15;;;;;;;46.30;6.37;;;;;;;;;;5051281;28;20232;-84
2022/02/22 06:57:43;;;;;;;40.77;6.10;;;;;;;;;;5051598;28;20577;-84
2022/02/22 07:00:13;;;;;;;44.37;6.97;;;;;;;;;;5051575;28;20230;-84
2022/02/22 07:02:40;;;;;;;49.30;6.93;;;;;;;;;;5051536;28;20288;-85
2022/02/22 07:05:08;;;;;;;44.40;6.70;;;;;;;;;;5051320;28;20257;-84
2022/02/22 07:07:36;;;;;;;36.43;6.97;;;;;;;;;;5051352;28;20231;-84
2022/02/22 07:10:04;;;;;;;35.73;6.70;;;;;;;;;;5051516;28;20234;-84
2022/02/22 07:12:31;;;;;;;43.47;7.13;;;;;;;;;;5050330;28;20632;-84
2022/02/22 07:14:58;;;;;;;46.93;6.37;;;;;;;;;;5051338;28;20236;-85
2022/02/22 07:17:27;;;;;;;45.73;6.50;;;;;;;;;;5051383;28;20614;-84
2022/02/22 07:19:55;;;;;;;45.17;8.37;;;;;;;;;;5051290;28;20712;-85
2022/02/22 07:22:22;;;;;;;48.03;8.23;;;;;;;;;;5050619;28;20230;-84
2022/02/22 07:24:49;;;;;;;41.67;7.23;;;;;;;;;;5051210;28;20211;-85
2022/02/22 07:27:16;;;;;;;42.10;7.70;;;;;;;;;;5051165;28;20290;-84
2022/02/22 07:29:43;;;;;;;40.40;7.33;;;;;;;;;;5050447;28;20283;-84
2022/02/22 07:32:11;;;;;;;50.40;8.90;;;;;;;;;;5050701;28;20223;-85
2022/02/22 07:34:39;;;;;;;57.07;8.17;;;;;;;;;;5050875;28;20659;-84
2022/02/22 07:37:06;;;;;;;40.53;6.03;;;;;;;;;;5050848;28;20197;-85
2022/02/22 07:39:34;;;;;;;35.93;6.73;;;;;;;;;;5050943;28;20197;-85
2022/02/22 07:42:01;;;;;;;36.20;6.67;;;;;;;;;;5051081;28;20247;-84
2022/02/22 07:44:28;;;;;;;39.47;6.00;;;;;;;;;;5050417;28;20291;-84
2022/02/22 07:46:55;;;;;;;48.93;7.03;;;;;;;;;;5051231;28;20673;-84
2022/02/22 07:49:22;;;;;;;44.20;6.57;;;;;;;;;;5050468;28;20198;-84
2022/02/22 07:51:51;;;;;;;48.13;6.97;;;;;;;;;;5054499;28;20680;-84
2022/02/22 07:54:18;;;;;;;43.87;6.37;;;;;;;;;;5054558;28;20674;-85
2022/02/22 07:56:45;;;;;;;49.87;6.83;;;;;;;;;;5054609;28;20240;-84
2022/02/22 07:59:13;;;;;;;35.53;5.80;;;;;;;;;;5054106;28;20227;-84
2022/02/22 08:01:40;;;;;;;49.10;6.50;;;;;;;;;;5054002;28;20285;-84
2022/02/22 08:04:07;;;;;;;38.77;6.57;;;;;;;;;;5054768;28;20226;-84
2022/02/22 08:06:34;;;;;;;41.13;5.93;;;;;;;;;;5054243;28;20279;-83
2022/02/22 08:09:03;;;;;;;43.07;6.43;;;;;;;;;;5054935;28;20233;-84
2022/02/22 08:11:31;;;;;;;37.70;6.40;;;;;;;;;;5054137;28;20203;-84
2022/02/22 08:13:59;;;;;;;36.63;5.97;;;;;;;;;;5054201;28;20226;-84
2022/02/22 08:16:27;;;;;;;46.23;7.23;;;;;;;;;;5054117;28;20212;-83
2022/02/22 08:18:54;;;;;;;38.63;5.90;;;;;;;;;;5069575;28;20196;-84
2022/02/22 08:21:22;;;;;;;34.20;6.50;;;;;;;;;;5053995;28;20670;-84
2022/02/22 08:23:50;;;;;;;33.67;5.97;;;;;;;;;;5054001;28;20302;-83
2022/02/22 08:26:19;;;;;;;34.70;6.67;;;;;;;;;;5054529;28;20289;-83
2022/02/22 08:28:47;;;;;;;33.90;6.13;;;;;;;;;;5053799;28;20209;-83
2022/02/22 08:31:14;;;;;;;34.90;6.30;;;;;;;;;;5054328;28;20202;-83
2022/02/22 08:33:41;;;;;;;24.53;5.17;;;;;;;;;;5054040;28;20222;-83
2022/02/22 08:36:10;;;;;;;32.63;5.53;;;;;;;;;;5053694;28;20238;-84
2022/02/22 08:38:38;;;;;;;26.77;5.03;;;;;;;;;;5050803;28;20238;-83
2022/02/22 08:41:05;;;;;;;28.87;5.67;;;;;;;;;;5053600;28;20226;-83
2022/02/22 08:43:34;;;;;;;35.43;5.50;;;;;;;;;;5053027;28;20223;-84
2022/02/22 08:46:02;;;;;;;31.03;5.77;;;;;;;;;;5053167;28;20609;-83
2022/02/22 08:48:29;;;;;;;34.40;6.37;;;;;;;;;;5053721;28;20206;-82
2022/02/22 08:50:56;;;;;;;29.70;5.77;;;;;;;;;;5053436;28;20234;-83
2022/02/22 08:53:24;;;;;;;26.07;4.97;;;;;;;;;;5052914;28;20286;-84
2022/02/22 08:55:51;;;;;;;33.87;5.80;;;;;;;;;;5052973;28;20230;-84
2022/02/22 08:58:18;;;;;;;27.87;5.20;;;;;;;;;;5053907;28;20287;-84
2022/02/22 09:00:46;;;;;;;29.73;5.30;;;;;;;;;;5053450;28;20588;-84
2022/02/22 09:03:14;;;;;;;21.30;5.00;;;;;;;;;;5052397;28;20258;-84
2022/02/22 09:05:41;;;;;;;18.63;4.23;;;;;;;;;;5053363;28;20289;-84
2022/02/22 09:08:08;;;;;;;21.20;4.90;;;;;;;;;;5052239;28;20325;-84
2022/02/22 09:10:36;;;;;;;20.70;4.83;;;;;;;;;;5052835;28;20196;-84
2022/02/22 09:13:03;;;;;;;20.20;5.00;;;;;;;;;;5052998;28;20215;-84
2022/02/22 09:15:31;;;;;;;26.93;5.17;;;;;;;;;;5053553;28;20227;-84
2022/02/22 09:18:01;;;;;;;23.33;5.43;;;;;;;;;;5052964;28;20195;-84
2022/02/22 09:20:29;;;;;;;24.07;4.90;;;;;;;;;;5053292;28;20200;-84
2022/02/22 09:22:56;;;;;;;20.80;4.80;;;;;;;;;;5052736;28;20701;-84
2022/02/22 09:25:24;;;;;;;25.23;4.77;;;;;;;;;;5051816;28;20291;-84
2022/02/22 09:27:52;;;;;;;20.43;4.67;;;;;;;;;;5052895;28;20204;-84
2022/02/22 09:30:20;;;;;;;21.87;4.63;;;;;;;;;;5051572;28;20289;-85
2022/02/22 09:32:48;;;;;;;25.53;4.53;;;;;;;;;;5052984;28;20270;-84
2022/02/22 09:35:18;;;;;;;20.87;4.23;;;;;;;;;;5052902;28;20254;-84
2022/02/22 09:37:46;;;;;;;18.30;4.57;;;;;;;;;;5052471;28;20296;-84
2022/02/22 09:40:14;;;;;;;22.30;4.70;;;;;;;;;;5052656;28;20227;-84
2022/02/22 09:42:41;;;;;;;21.13;4.47;;;;;;;;;;5052741;28;20262;-84
2022/02/22 09:45:09;;;;;;;23.23;4.27;;;;;;;;;;5052881;28;20227;-84
2022/02/22 09:47:37;;;;;;;17.40;4.00;;;;;;;;;;5067594;28;20382;-84
2022/02/22 09:50:05;;;;;;;18.93;3.97;;;;;;;;;;5051989;28;20223;-84
2022/02/22 09:52:34;;;;;;;18.57;4.30;;;;;;;;;;5052572;28;20196;-84
2022/02/22 09:55:01;;;;;;;22.77;4.70;;;;;;;;;;5051862;28;20281;-84
2022/02/22 09:57:29;;;;;;;20.50;5.07;;;;;;;;;;5068156;28;20213;-84
2022/02/22 09:59:56;;;;;;;24.97;4.60;;;;;;;;;;5052088;28;20653;-84
2022/02/22 10:02:23;;;;;;;18.77;4.53;;;;;;;;;;5051759;28;20207;-84
2022/02/22 10:04:51;;;;;;;24.13;4.77;;;;;;;;;;5051687;28;20693;-84
2022/02/22 10:07:18;;;;;;;22.57;5.53;;;;;;;;;;5051466;28;20715;-84
2022/02/22 10:09:55;;;;;;;18.73;4.23;;;;;;;;;;5050737;28;20191;-85
2022/02/22 10:12:29;;;;;;;13.47;3.43;;;;;;;;;;5051830;28;20249;-84
2022/02/22 10:14:57;;;;;;;14.13;3.57;;;;;;;;;;5050197;28;20286;-84
2022/02/22 10:17:25;;;;;;;14.47;3.60;;;;;;;;;;5051885;28;20210;-84
2022/02/22 10:20:01;;;;;;;13.43;3.80;;;;;;;;;;5051740;28;20227;-84
2022/02/22 10:22:28;;;;;;;11.07;3.13;;;;;;;;;;5051829;28;20587;-84
2022/02/22 10:25:07;;;;;;;13.37;2.80;;;;;;;;;;5051666;28;20229;-84
2022/02/22 10:27:45;;;;;;;11.50;3.33;;;;;;;;;;5051848;28;20227;-84
2022/02/22 10:30:29;;;;;;;12.23;2.80;;;;;;;;;;5051517;28;20292;-84
2022/02/22 10:32:56;;;;;;;10.83;2.43;;;;;;;;;;5051217;28;20610;-85
2022/02/22 10:35:30;;;;;;;9.93;2.43;;;;;;;;;;5050945;28;20915;-85
2022/02/22 10:37:58;;;;;;;10.20;2.37;;;;;;;;;;5051152;28;20230;-85
2022/02/22 10:40:31;;;;;;;9.33;2.33;;;;;;;;;;5051841;28;20625;-85
2022/02/22 10:42:58;;;;;;;7.57;2.27;;;;;;;;;;5049453;28;20281;-85
2022/02/22 10:45:26;;;;;;;8.20;2.40;;;;;;;;;;5051131;28;20255;-85
2022/02/22 10:47:55;;;;;;;11.07;3.03;;;;;;;;;;5051073;28;20278;-84
2022/02/22 10:50:25;;;;;;;11.70;2.30;;;;;;;;;;5050986;28;20204;-84
2022/02/22 10:52:53;;;;;;;9.87;2.40;;;;;;;;;;5051059;28;20192;-84
2022/02/22 10:55:21;;;;;;;11.47;2.63;;;;;;;;;;5051221;28;20316;-85
2022/02/22 10:57:52;;;;;;;9.13;3.10;;;;;;;;;;5051258;28;20253;-85
2022/02/22 11:00:20;;;;;;;9.97;2.30;;;;;;;;;;5050872;28;20246;-84
2022/02/22 11:02:47;;;;;;;10.43;2.90;;;;;;;;;;5050900;28;20341;-84
2022/02/22 11:05:15;;;;;;;9.27;3.10;;;;;;;;;;5051005;28;20231;-84
2022/02/22 11:07:42;;;;;;;9.70;3.07;;;;;;;;;;5050862;28;20227;-85
2022/02/22 11:10:10;;;;;;;12.20;3.60;;;;;;;;;;5050659;28;20287;-85
2022/02/22 11:12:41;;;;;;;12.07;2.90;;;;;;;;;;5048794;28;20566;-84
2022/02/22 11:15:10;;;;;;;11.57;2.30;;;;;;;;;;5051017;28;20219;-84
2022/02/22 11:17:48;;;;;;;7.60;2.40;;;;;;;;;;5050321;28;20254;-83
2022/02/22 11:20:26;;;;;;;9.83;2.77;;;;;;;;;;5050648;28;20230;-84
2022/02/22 11:22:56;;;;;;;8.70;2.57;;;;;;;;;;5050146;28;20223;-83
2022/02/22 11:25:27;;;;;;;10.20;2.37;;;;;;;;;;5038314;28;20206;-84
2022/02/22 11:28:01;;;;;;;10.67;2.13;;;;;;;;;;5055181;28;20292;-83
2022/02/22 11:30:30;;;;;;;8.43;2.20;;;;;;;;;;5055284;28;20679;-84
2022/02/22 11:32:59;;;;;;;8.63;2.00;;;;;;;;;;5054584;28;20755;-84
2022/02/22 11:35:27;;;;;;;7.17;2.30;;;;;;;;;;5055039;28;20234;-84
2022/02/22 11:38:04;;;;;;;9.10;2.17;;;;;;;;;;5054747;28;20227;-84
2022/02/22 11:40:33;;;;;;;9.87;2.00;;;;;;;;;;5054622;28;20241;-84
2022/02/22 11:43:05;;;;;;;5.43;1.80;;;;;;;;;;5053125;28;20657;-84
2022/02/22 11:45:34;;;;;;;8.60;2.30;;;;;;;;;;5054821;28;20223;-84
2022/02/22 11:48:14;;;;;;;8.87;2.10;;;;;;;;;;5054848;28;20231;-84
2022/02/22 11:50:42;;;;;;;8.77;2.00;;;;;;;;;;5054137;28;20235;-84
2022/02/22 11:53:11;;;;;;;6.17;1.80;;;;;;;;;;5053804;28;20207;-84
2022/02/22 11:55:39;;;;;;;7.20;2.07;;;;;;;;;;5054486;28;20204;-84
2022/02/22 11:58:12;;;;;;;7.43;2.00;;;;;;;;;;5054174;28;20318;-84
2022/02/22 12:00:40;;;;;;;5.43;1.80;;;;;;;;;;5054353;28;20204;-84
2022/02/22 12:03:08;;;;;;;4.07;1.63;;;;;;;;;;5053573;28;20187;-84
2022/02/22 12:05:39;;;;;;;6.47;1.90;;;;;;;;;;5041996;28;20196;-84
2022/02/22 12:08:08;;;;;;;6.90;1.60;;;;;;;;;;5054676;28;20222;-84
2022/02/22 12:10:38;;;;;;;6.17;1.77;;;;;;;;;;5055729;28;20633;-85
2022/02/22 12:13:08;;;;;;;8.67;2.40;;;;;;;;;;5059468;28;20227;-84
2022/02/22 12:15:36;;;;;;;6.67;2.17;;;;;;;;;;5054481;28;20671;-86
2022/02/22 12:18:05;;;;;;;6.27;2.17;;;;;;;;;;5054862;28;20637;-87
2022/02/22 12:20:32;;;;;;;8.37;2.03;;;;;;;;;;5054976;28;20225;-87
2022/02/22 12:23:00;;;;;;;5.73;2.10;;;;;;;;;;5054804;28;20219;-86
2022/02/22 12:25:29;;;;;;;4.63;2.10;;;;;;;;;;5054118;28;20200;-87
2022/02/22 12:28:00;;;;;;;6.10;2.30;;;;;;;;;;5054038;28;20212;-86
2022/02/22 12:30:31;;;;;;;6.67;2.13;;;;;;;;;;5054156;28;20258;-84
2022/02/22 12:32:59;;;;;;;7.50;2.20;;;;;;;;;;5053192;28;20279;-83
2022/02/22 12:35:37;;;;;;;7.97;1.80;;;;;;;;;;5053666;28;20294;-83
2022/02/22 12:38:13;;;;;;;5.97;1.70;;;;;;;;;;5045668;28;20287;-83
2022/02/22 12:40:40;;;;;;;7.27;1.70;;;;;;;;;;5053076;28;20235;-83
2022/02/22 12:43:08;;;;;;;8.23;2.30;;;;;;;;;;5053871;28;20258;-83
2022/02/22 12:45:36;;;;;;;7.43;1.97;;;;;;;;;;5053462;28;20307;-83
2022/02/22 12:48:04;;;;;;;8.20;2.33;;;;;;;;;;5053424;28;20200;-83
2022/02/22 12:50:32;;;;;;;4.93;1.80;;;;;;;;;;5052736;28;20199;-83
2022/02/22 12:53:01;;;;;;;7.17;2.60;;;;;;;;;;5052940;28;20286;-83
2022/02/22 12:55:28;;;;;;;6.60;2.57;;;;;;;;;;5053075;28;20207;-83
2022/02/22 12:58:05;;;;;;;6.83;2.53;;;;;;;;;;5052656;28;20246;-85
2022/02/22 13:00:33;;;;;;;9.20;2.57;;;;;;;;;;5053791;28;20287;-84
2022/02/22 13:03:10;;;;;;;7.60;2.50;;;;;;;;;;5052533;28;20200;-85
2022/02/22 13:05:38;;;;;;;8.97;2.37;;;;;;;;;;5053222;28;20683;-84
2022/02/22 13:08:07;;;;;;;7.80;2.47;;;;;;;;;;5053135;28;20192;-84
2022/02/22 13:10:42;;;;;;;8.47;2.33;;;;;;;;;;5053392;28;20311;-84
2022/02/22 13:13:09;;;;;;;7.27;2.53;;;;;;;;;;5052483;28;20207;-84
2022/02/22 13:15:36;;;;;;;7.77;2.50;;;;;;;;;;5053170;28;20644;-84
2022/02/22 13:18:18;;;;;;;7.30;3.00;;;;;;;;;;5052357;28;20239;-84
2022/02/22 13:20:47;;;;;;;5.97;2.33;;;;;;;;;;5052930;28;20207;-84
2022/02/22 13:23:16;;;;;;;7.20;2.33;;;;;;;;;;5052519;28;20224;-84
2022/02/22 13:25:44;;;;;;;8.40;2.60;;;;;;;;;;5052824;28;20675;-84
2022/02/22 13:28:12;;;;;;;7.07;2.23;;;;;;;;;;5052403;28;20192;-84
2022/02/22 13:30:40;;;;;;;9.13;2.30;;;;;;;;;;5052734;28;20282;-84
2022/02/22 13:33:09;;;;;;;7.47;2.23;;;;;;;;;;5052643;28;20199;-84
2022/02/22 13:35:36;;;;;;;5.30;2.20;;;;;;;;;;5052812;28;20690;-84
2022/02/22 13:38:04;;;;;;;6.53;2.40;;;;;;;;;;5052136;28;20227;-84
2022/02/22 13:40:34;;;;;;;7.28;2.35;;;;;;;;;;5051853;28;20223;-84
2022/02/22 13:43:02;;;;;;;7.60;2.25;;;;;;;;;;5052282;28;20734;-85
2022/02/22 13:45:31;;;;;;;6.30;2.20;;;;;;;;;;5051928;28;20266;-84
2022/02/22 13:48:02;;;;;;;7.20;2.08;;;;;;;;;;5052301;28;20204;-84
2022/02/22 13:50:29;;;;;;;5.45;1.95;;;;;;;;;;5052347;28;20282;-84
2022/02/22 13:53:00;;;;;;;8.65;2.38;;;;;;;;;;5052889;28;20196;-84
2022/02/22 13:55:28;;;;;;;6.45;1.90;;;;;;;;;;5052665;28;20203;-84
2022/02/22 13:58:00;;;;;;;9.25;2.38;;;;;;;;;;5052671;28;20286;-84
2022/02/22 14:00:27;;;;;;;10.88;2.33;;;;;;;;;;5052252;28;20238;-84
2022/02/22 14:03:01;;;;;;;6.18;1.92;;;;;;;;;;5051600;28;20202;-84
2022/02/22 14:05:29;;;;;;;5.57;1.60;;;;;;;;;;5051745;28;20231;-85
2022/02/22 14:07:56;;;;;;;5.82;2.22;;;;;;;;;;5051504;28;20694;-84
2022/02/22 14:10:23;;;;;;;7.20;2.20;;;;;;;;;;5051357;28;20257;-83
2022/02/22 14:12:51;;;;;;;8.27;2.15;;;;;;;;;;5050725;28;20750;-84
2022/02/22 14:15:19;;;;;;;9.02;2.47;;;;;;;;;;5051084;28;20731;-84
2022/02/22 14:17:46;;;;;;;10.15;2.67;;;;;;;;;;5051211;28;20639;-84
2022/02/22 14:20:15;;;;;;;7.78;2.47;;;;;;;;;;5052096;28;20203;-84
2022/02/22 14:22:43;;;;;;;7.88;3.00;;;;;;;;;;5052039;28;20211;-84
2022/02/22 14:25:11;;;;;;;7.95;2.83;;;;;;;;;;5043255;28;20241;-84
2022/02/22 14:27:38;;;;;;;6.72;2.53;;;;;;;;;;5051654;28;20997;-84
2022/02/22 14:30:06;;;;;;;7.25;2.40;;;;;;;;;;5051303;28;20203;-84
2022/02/22 14:32:35;;;;;;;8.90;2.30;;;;;;;;;;5051991;28;20215;-84
2022/02/22 14:35:03;;;;;;;7.93;2.20;;;;;;;;;;5051458;28;20245;-84
2022/02/22 14:37:30;;;;;;;7.22;2.38;;;;;;;;;;5051866;28;20287;-85
2022/02/22 14:39:58;;;;;;;7.63;1.92;;;;;;;;;;5066904;28;20667;-84